Terminal Aerodrome Forecast
Issued by NWS

Home | Current Version | Previous Version | Text Only | Print | Product List | Glossary On
Versions: 1 2 3 4 5 6 7 8 9 10 11 12 13 14
000
FTUS44 KBMX 161120
TAFTOI
TAF
KTOI 161120Z 1612/1712 12003KT P6SM BKN070
     FM161600 17007KT P6SM SCT050 BKN070
     FM170000 16002KT P6SM BKN250
     FM170900 15002KT P6SM OVC050=

USA.gov is the U.S. government's official web portal to all federal, state and local government web resources and services.